createdAt,value
2018-03-30T00:00:58.693Z,1.50
2018-03-30T00:03:26.929Z,1.50
2018-03-30T00:05:55.069Z,1.50
2018-03-30T00:08:23.224Z,1.50
2018-03-30T00:10:54.173Z,1.50
2018-03-30T00:13:22.336Z,1.50
2018-03-30T00:15:50.474Z,1.50
2018-03-30T00:18:18.639Z,1.50
2018-03-30T00:20:46.774Z,1.50
2018-03-30T00:23:14.928Z,1.40
2018-03-30T00:25:43.821Z,1.40
2018-03-30T00:28:11.983Z,1.40
2018-03-30T00:30:40.878Z,1.40
2018-03-30T00:33:09.041Z,1.40
2018-03-30T00:35:37.936Z,1.40
2018-03-30T00:38:06.090Z,1.40
2018-03-30T00:40:34.227Z,1.40
2018-03-30T00:43:02.394Z,1.40
2018-03-30T00:45:30.535Z,1.40
2018-03-30T00:47:59.549Z,1.40
2018-03-30T00:50:27.693Z,1.40
2018-03-30T00:52:56.619Z,1.40
2018-03-30T00:55:24.753Z,1.40
2018-03-30T00:57:53.670Z,1.40
2018-03-30T01:00:21.806Z,1.30
2018-03-30T01:02:49.966Z,1.40
2018-03-30T01:05:18.097Z,1.30
2018-03-30T01:07:46.251Z,1.20
2018-03-30T01:10:14.386Z,1.20
2018-03-30T01:12:42.557Z,1.10
2018-03-30T01:15:10.686Z,1.00
2018-03-30T01:17:38.817Z,1.00
2018-03-30T01:20:06.986Z,0.90
2018-03-30T01:22:35.133Z,0.90
2018-03-30T01:25:03.290Z,0.80
2018-03-30T01:27:31.421Z,0.80
2018-03-30T01:29:59.586Z,0.80
2018-03-30T01:32:27.717Z,0.90
2018-03-30T01:34:55.886Z,0.90
2018-03-30T01:37:24.021Z,0.90
2018-03-30T01:39:52.182Z,0.90
2018-03-30T01:42:20.317Z,0.90
2018-03-30T01:44:48.474Z,1.00
2018-03-30T01:47:16.610Z,1.00
2018-03-30T01:49:44.773Z,1.20
2018-03-30T01:52:12.909Z,1.00
2018-03-30T01:54:41.060Z,1.10
2018-03-30T01:57:09.194Z,1.10
2018-03-30T01:59:37.354Z,1.10
2018-03-30T02:02:05.490Z,1.10
2018-03-30T02:04:33.639Z,1.10
2018-03-30T02:07:01.776Z,1.10
2018-03-30T02:09:29.935Z,1.10
2018-03-30T02:11:58.079Z,1.30
2018-03-30T02:14:26.237Z,1.20
2018-03-30T02:16:54.374Z,1.20
2018-03-30T02:19:22.532Z,1.20
2018-03-30T02:21:50.662Z,1.20
2018-03-30T02:24:18.823Z,1.20
2018-03-30T02:26:46.965Z,1.20
2018-03-30T02:29:15.134Z,1.20
2018-03-30T02:31:43.267Z,1.20
2018-03-30T02:34:11.415Z,1.20
2018-03-30T02:36:39.575Z,1.20
2018-03-30T02:39:07.707Z,1.20
2018-03-30T02:41:35.877Z,1.20
2018-03-30T02:44:04.027Z,1.20
2018-03-30T02:46:32.182Z,1.10
2018-03-30T02:49:00.322Z,1.10
2018-03-30T02:51:28.482Z,1.00
2018-03-30T02:53:56.616Z,0.90
2018-03-30T02:56:24.774Z,0.90
2018-03-30T02:58:52.911Z,0.80
2018-03-30T03:01:21.090Z,0.70
2018-03-30T03:03:49.227Z,0.70
2018-03-30T03:06:17.382Z,0.70
2018-03-30T03:08:45.518Z,0.60
2018-03-30T03:11:13.677Z,0.60
2018-03-30T03:13:41.813Z,0.60
2018-03-30T03:16:10.058Z,0.70
2018-03-30T03:18:38.949Z,0.70
2018-03-30T03:21:07.108Z,0.80
2018-03-30T03:23:35.253Z,0.70
2018-03-30T03:26:03.414Z,0.70
2018-03-30T03:28:31.546Z,0.80
2018-03-30T03:30:59.706Z,0.70
2018-03-30T03:33:27.839Z,0.80
2018-03-30T03:35:55.996Z,0.90
2018-03-30T03:38:24.125Z,0.80
2018-03-30T03:40:52.286Z,0.90
2018-03-30T03:43:20.413Z,0.80
2018-03-30T03:45:48.570Z,0.90
2018-03-30T03:48:16.697Z,0.90
2018-03-30T03:50:44.838Z,0.80
2018-03-30T03:53:12.997Z,0.80
2018-03-30T03:55:41.129Z,0.80
2018-03-30T03:58:09.277Z,0.90
2018-03-30T04:00:37.406Z,0.70
2018-03-30T04:03:05.568Z,0.70
2018-03-30T04:05:34.478Z,0.50
2018-03-30T04:08:02.637Z,0.60
2018-03-30T04:10:31.539Z,0.50
2018-03-30T04:12:59.693Z,0.40
2018-03-30T04:15:27.824Z,0.40
2018-03-30T04:17:55.976Z,0.30
2018-03-30T04:20:24.113Z,0.30
2018-03-30T04:22:52.265Z,0.30
2018-03-30T04:25:20.397Z,0.30
2018-03-30T04:27:48.553Z,0.30
2018-03-30T04:30:16.685Z,0.30
2018-03-30T04:32:44.852Z,0.50
2018-03-30T04:35:12.991Z,0.30
2018-03-30T04:37:41.151Z,0.30
2018-03-30T04:40:09.281Z,0.30
2018-03-30T04:42:37.429Z,0.40
2018-03-30T04:45:05.563Z,0.30
2018-03-30T04:47:34.482Z,0.40
2018-03-30T04:50:02.698Z,0.50
2018-03-30T04:52:30.795Z,0.40
2018-03-30T04:54:58.927Z,0.30
2018-03-30T04:57:27.089Z,0.40
2018-03-30T04:59:55.222Z,0.30
2018-03-30T05:02:24.146Z,0.30
2018-03-30T05:04:52.277Z,0.40
2018-03-30T05:07:21.203Z,0.40
2018-03-30T05:09:49.331Z,0.30
2018-03-30T05:12:17.501Z,0.40
2018-03-30T05:14:45.639Z,0.40
2018-03-30T05:17:13.796Z,0.40
2018-03-30T05:19:41.953Z,0.40
2018-03-30T05:22:10.089Z,0.40
2018-03-30T05:24:38.250Z,0.50
2018-03-30T05:27:06.400Z,0.50
2018-03-30T05:29:34.553Z,0.50
2018-03-30T05:32:02.677Z,0.60
2018-03-30T05:34:30.871Z,0.60
2018-03-30T05:36:58.989Z,0.60
2018-03-30T05:39:27.145Z,0.50
2018-03-30T05:41:55.277Z,0.50
2018-03-30T05:44:23.437Z,0.50
2018-03-30T05:49:24.905Z,0.60
2018-03-30T05:51:53.041Z,0.40
2018-03-30T05:54:21.202Z,0.40
2018-03-30T05:56:49.337Z,0.40
2018-03-30T05:59:17.502Z,0.40
2018-03-30T06:01:45.642Z,0.40
2018-03-30T06:04:13.812Z,0.50
2018-03-30T06:06:41.939Z,0.50
2018-03-30T06:09:10.105Z,0.50
2018-03-30T06:11:38.320Z,0.50
2018-03-30T06:14:06.475Z,0.50
2018-03-30T06:16:34.616Z,0.60
2018-03-30T06:19:02.777Z,0.70
2018-03-30T06:21:30.914Z,0.80
2018-03-30T06:23:59.042Z,0.80
2018-03-30T06:26:27.202Z,0.80
2018-03-30T06:28:55.329Z,0.90
2018-03-30T06:31:23.492Z,1.00
2018-03-30T06:33:51.624Z,1.00
2018-03-30T06:36:19.789Z,1.00
2018-03-30T06:38:47.925Z,1.10
2018-03-30T06:41:16.129Z,1.20
2018-03-30T06:43:44.254Z,1.20
2018-03-30T06:46:12.404Z,1.20
2018-03-30T06:48:40.549Z,1.30
2018-03-30T06:51:08.701Z,1.40
2018-03-30T06:53:36.833Z,1.50
2018-03-30T06:56:04.995Z,1.60
2018-03-30T06:58:33.130Z,1.80
2018-03-30T07:01:01.303Z,1.80
2018-03-30T07:03:29.428Z,2.00
2018-03-30T07:05:57.582Z,2.30
2018-03-30T07:08:25.722Z,2.60
2018-03-30T07:10:53.882Z,2.90
2018-03-30T07:13:22.014Z,3.20
2018-03-30T07:15:50.161Z,3.50
2018-03-30T07:18:18.315Z,3.70
2018-03-30T07:20:46.497Z,3.70
2018-03-30T07:23:14.666Z,3.60
2018-03-30T07:25:42.813Z,3.50
2018-03-30T07:28:11.702Z,3.70
2018-03-30T07:30:41.702Z,3.70
2018-03-30T07:33:09.826Z,3.90
2018-03-30T07:35:37.977Z,3.80
2018-03-30T07:38:06.097Z,3.80
2018-03-30T07:40:34.259Z,3.90
2018-03-30T07:43:02.393Z,4.00
2018-03-30T07:45:30.522Z,4.00
2018-03-30T07:47:59.415Z,4.10
2018-03-30T07:50:27.536Z,4.30
2018-03-30T07:52:55.716Z,4.40
2018-03-30T07:55:23.843Z,4.40
2018-03-30T07:57:51.989Z,4.60
2018-03-30T08:00:20.113Z,4.80
2018-03-30T08:02:49.043Z,5.20
2018-03-30T08:05:18.977Z,5.20
2018-03-30T08:07:47.126Z,5.60
2018-03-30T08:10:15.308Z,5.80
2018-03-30T08:12:43.449Z,5.80
2018-03-30T08:15:11.574Z,5.80
2018-03-30T08:17:39.750Z,5.90
2018-03-30T08:20:07.899Z,5.70
2018-03-30T08:22:36.138Z,5.40
2018-03-30T08:25:04.248Z,5.40
2018-03-30T08:27:32.403Z,5.30
2018-03-30T08:30:00.553Z,5.30
2018-03-30T08:32:28.726Z,5.20
2018-03-30T08:34:57.617Z,4.60
2018-03-30T08:37:25.766Z,4.60
2018-03-30T08:39:53.902Z,4.40
2018-03-30T08:42:22.066Z,4.40
2018-03-30T08:44:50.191Z,4.30
2018-03-30T08:47:18.326Z,4.10
2018-03-30T08:49:46.481Z,4.10
2018-03-30T08:52:14.616Z,4.20
2018-03-30T08:54:42.777Z,4.40
2018-03-30T08:57:10.937Z,4.90
2018-03-30T08:59:39.096Z,5.30
2018-03-30T09:02:07.218Z,5.80
2018-03-30T09:04:35.369Z,6.30
2018-03-30T09:07:03.497Z,6.60
2018-03-30T09:09:31.647Z,6.90
2018-03-30T09:12:00.654Z,7.10
2018-03-30T09:14:28.811Z,7.10
2018-03-30T09:16:56.952Z,7.10
2018-03-30T09:19:25.103Z,7.00
2018-03-30T09:21:53.231Z,6.90
2018-03-30T09:24:22.165Z,6.60
2018-03-30T09:26:50.324Z,6.60
2018-03-30T09:29:18.483Z,6.60
2018-03-30T09:31:46.613Z,6.50
2018-03-30T09:34:14.780Z,6.40
2018-03-30T09:36:42.988Z,6.20
2018-03-30T09:39:11.190Z,6.20
2018-03-30T09:41:39.318Z,6.10
2018-03-30T09:44:07.477Z,6.00
2018-03-30T09:46:35.611Z,5.90
2018-03-30T09:49:03.905Z,5.90
2018-03-30T09:51:32.104Z,5.90
2018-03-30T09:54:00.266Z,5.80
2018-03-30T09:56:28.480Z,5.80
2018-03-30T09:58:56.625Z,5.80
2018-03-30T10:01:24.786Z,5.80
2018-03-30T10:03:52.922Z,5.90
2018-03-30T10:06:21.090Z,5.80
2018-03-30T10:08:49.225Z,5.80
2018-03-30T10:11:17.451Z,5.80
2018-03-30T10:13:45.709Z,5.70
2018-03-30T10:16:13.905Z,5.70
2018-03-30T10:18:42.051Z,5.60
2018-03-30T10:21:10.270Z,5.70
2018-03-30T10:23:38.427Z,5.70
2018-03-30T10:26:06.788Z,5.80
2018-03-30T10:28:35.710Z,5.80
2018-03-30T10:31:03.937Z,5.80
2018-03-30T10:33:32.137Z,5.90
2018-03-30T10:36:00.355Z,5.80
2018-03-30T10:38:28.461Z,5.90
2018-03-30T10:40:56.628Z,6.00
2018-03-30T10:43:24.775Z,5.90
2018-03-30T10:45:52.937Z,5.80
2018-03-30T10:48:21.072Z,5.80
2018-03-30T10:50:49.292Z,5.80
2018-03-30T10:53:17.454Z,5.80
2018-03-30T10:55:45.612Z,5.80
2018-03-30T10:58:13.747Z,5.80
2018-03-30T11:00:41.915Z,5.70
2018-03-30T11:03:10.045Z,5.60
2018-03-30T11:05:38.312Z,5.60
2018-03-30T11:08:06.457Z,5.70
2018-03-30T11:10:36.274Z,5.70
2018-03-30T11:13:04.410Z,5.70
2018-03-30T11:15:32.760Z,5.80
2018-03-30T11:18:00.995Z,5.70
2018-03-30T11:20:29.912Z,5.70
2018-03-30T11:22:59.121Z,5.70
2018-03-30T11:25:27.541Z,5.70
2018-03-30T11:27:55.714Z,5.60
2018-03-30T11:30:23.864Z,5.60
2018-03-30T11:32:52.054Z,5.60
2018-03-30T11:35:20.198Z,5.60
2018-03-30T11:37:48.362Z,5.60
2018-03-30T11:40:16.502Z,5.60
2018-03-30T11:42:44.660Z,5.70
2018-03-30T11:45:13.557Z,5.80
2018-03-30T11:47:41.714Z,5.80
2018-03-30T11:50:09.846Z,5.80
2018-03-30T11:52:38.003Z,5.80
2018-03-30T11:55:06.141Z,5.90
2018-03-30T11:57:34.328Z,5.90
2018-03-30T12:00:03.225Z,5.90
2018-03-30T12:02:31.406Z,5.90
2018-03-30T12:04:59.567Z,5.90
2018-03-30T12:07:27.757Z,5.90
2018-03-30T12:09:55.915Z,6.00
2018-03-30T12:12:24.909Z,6.00
2018-03-30T12:14:53.968Z,6.10
2018-03-30T12:17:22.175Z,6.10
2018-03-30T12:19:50.330Z,6.20
2018-03-30T12:22:18.492Z,6.20
2018-03-30T12:24:46.632Z,6.20
2018-03-30T12:27:14.835Z,6.20
2018-03-30T12:29:43.032Z,6.20
2018-03-30T12:32:11.253Z,6.10
2018-03-30T12:34:39.474Z,6.10
2018-03-30T12:37:07.680Z,6.10
2018-03-30T12:39:35.846Z,6.10
2018-03-30T12:42:04.429Z,6.20
2018-03-30T12:44:32.662Z,6.20
2018-03-30T12:47:00.897Z,6.20
2018-03-30T12:49:29.110Z,6.20
2018-03-30T12:51:57.296Z,6.30
2018-03-30T12:54:25.602Z,6.30
2018-03-30T12:56:53.824Z,6.30
2018-03-30T12:59:21.986Z,6.30
2018-03-30T13:01:50.136Z,6.40
2018-03-30T13:04:18.315Z,6.40
2018-03-30T13:06:46.463Z,6.40
2018-03-30T13:09:14.678Z,6.50
2018-03-30T13:11:42.927Z,6.60
2018-03-30T13:14:11.871Z,6.90
2018-03-30T13:16:40.094Z,6.90
2018-03-30T13:19:08.297Z,7.00
2018-03-30T13:21:36.882Z,7.10
2018-03-30T13:24:05.054Z,7.10
2018-03-30T13:26:33.196Z,7.10
2018-03-30T13:29:02.141Z,7.10
2018-03-30T13:31:30.333Z,7.10
2018-03-30T13:33:58.538Z,7.10
2018-03-30T13:36:26.714Z,7.00
2018-03-30T13:38:55.718Z,6.90
2018-03-30T13:41:24.635Z,6.90
2018-03-30T13:43:52.856Z,6.80
2018-03-30T13:46:20.999Z,6.80
2018-03-30T13:48:49.177Z,6.90
2018-03-30T13:51:27.248Z,6.80
2018-03-30T13:53:56.306Z,6.90
2018-03-30T13:56:36.984Z,6.90
2018-03-30T13:59:08.991Z,7.00
2018-03-30T14:01:38.063Z,7.10
2018-03-30T14:04:21.956Z,7.10
2018-03-30T14:06:57.014Z,7.20
2018-03-30T14:09:29.045Z,7.30
2018-03-30T14:12:01.757Z,7.40
2018-03-30T14:14:29.944Z,7.40
2018-03-30T14:16:58.993Z,7.30
2018-03-30T14:19:27.970Z,7.20
2018-03-30T14:22:01.034Z,7.10
2018-03-30T14:24:30.027Z,6.90
2018-03-30T14:27:13.872Z,6.80
2018-03-30T14:29:44.840Z,6.80
2018-03-30T14:32:34.601Z,6.70
2018-03-30T14:38:21.974Z,6.70
2018-03-30T14:40:51.052Z,6.70
2018-03-30T14:43:44.787Z,6.70
2018-03-30T14:46:17.830Z,6.70
2018-03-30T14:48:48.643Z,6.80
2018-03-30T14:51:23.214Z,7.00
2018-03-30T14:53:51.345Z,7.20
2018-03-30T14:56:23.316Z,7.40
2018-03-30T14:59:07.113Z,7.50
2018-03-30T15:01:39.567Z,7.50
2018-03-30T15:04:08.487Z,7.50
2018-03-30T15:09:58.682Z,7.50
2018-03-30T15:12:35.177Z,7.30
2018-03-30T15:15:05.208Z,7.20
2018-03-30T15:17:38.685Z,7.30
2018-03-30T15:20:08.578Z,7.20
2018-03-30T15:22:54.599Z,7.20
2018-03-30T15:25:28.439Z,7.20
2018-03-30T15:27:57.321Z,7.20
2018-03-30T15:30:56.906Z,7.20
2018-03-30T15:36:31.309Z,7.10
2018-03-30T15:38:59.442Z,7.10
2018-03-30T15:41:29.110Z,7.10
2018-03-30T15:43:57.258Z,7.10
2018-03-30T15:46:26.137Z,7.10
2018-03-30T15:48:54.282Z,7.20
2018-03-30T15:51:24.262Z,7.20
2018-03-30T15:53:51.885Z,7.20
2018-03-30T15:56:20.074Z,7.20
2018-03-30T15:58:48.216Z,7.20
2018-03-30T16:01:16.394Z,7.10
2018-03-30T16:03:44.583Z,7.10
2018-03-30T16:06:12.743Z,7.00
2018-03-30T16:08:40.969Z,6.90
2018-03-30T16:11:21.975Z,6.80
2018-03-30T16:13:50.118Z,6.60
2018-03-30T16:16:19.051Z,6.50
2018-03-30T16:18:55.830Z,6.50
2018-03-30T16:21:23.572Z,6.40
2018-03-30T16:23:51.217Z,6.30
2018-03-30T16:26:18.896Z,6.30
2018-03-30T16:28:46.560Z,6.20
2018-03-30T16:31:14.295Z,6.10
2018-03-30T16:33:42.713Z,5.90
2018-03-30T16:36:10.417Z,5.90
2018-03-30T16:38:38.120Z,5.80
2018-03-30T16:41:05.843Z,5.70
2018-03-30T16:43:33.508Z,5.70
2018-03-30T16:46:01.211Z,5.60
2018-03-30T16:48:28.880Z,5.50
2018-03-30T16:50:56.596Z,5.40
2018-03-30T16:53:24.269Z,5.40
2018-03-30T16:55:51.930Z,5.30
2018-03-30T16:58:19.597Z,5.20
2018-03-30T17:00:47.239Z,5.10
2018-03-30T17:03:14.935Z,5.10
2018-03-30T17:05:43.355Z,5.00
2018-03-30T17:08:11.059Z,5.00
2018-03-30T17:10:38.712Z,4.90
2018-03-30T17:13:06.389Z,4.90
2018-03-30T17:15:34.051Z,4.80
2018-03-30T17:18:02.534Z,4.80
2018-03-30T17:20:30.201Z,4.70
2018-03-30T17:22:58.681Z,4.70
2018-03-30T17:25:27.113Z,4.60
2018-03-30T17:27:54.778Z,4.60
2018-03-30T17:30:22.498Z,4.60
2018-03-30T17:32:50.941Z,4.50
2018-03-30T17:35:18.645Z,4.40
2018-03-30T17:37:48.590Z,4.40
2018-03-30T17:40:16.389Z,4.30
2018-03-30T17:42:47.957Z,4.30
2018-03-30T17:45:15.822Z,4.20
2018-03-30T17:47:43.858Z,4.10
2018-03-30T17:50:11.709Z,4.00
2018-03-30T17:52:39.434Z,3.90
2018-03-30T17:55:07.871Z,3.80
2018-03-30T17:57:35.523Z,3.80
2018-03-30T18:00:03.217Z,3.70
2018-03-30T18:02:30.868Z,3.70
2018-03-30T18:04:58.652Z,3.60
2018-03-30T18:07:26.311Z,3.60
2018-03-30T18:09:53.997Z,3.50
2018-03-30T18:12:21.700Z,3.50
2018-03-30T18:14:49.388Z,3.40
2018-03-30T18:17:17.089Z,3.40
2018-03-30T18:19:44.792Z,3.40
2018-03-30T18:22:12.490Z,3.30
2018-03-30T18:24:40.340Z,3.30
2018-03-30T18:27:08.082Z,3.20
2018-03-30T18:29:35.883Z,3.20
2018-03-30T18:32:04.308Z,3.10
2018-03-30T18:34:31.994Z,3.10
2018-03-30T18:37:00.445Z,3.00
2018-03-30T18:39:28.131Z,3.00
2018-03-30T18:41:55.786Z,2.90
2018-03-30T18:44:23.511Z,2.90
2018-03-30T18:46:51.158Z,2.80
2018-03-30T18:49:19.657Z,2.70
2018-03-30T18:51:47.326Z,2.70
2018-03-30T18:54:15.851Z,2.60
2018-03-30T18:56:43.611Z,2.60
2018-03-30T18:59:11.363Z,2.60
2018-03-30T19:01:39.087Z,2.50
2018-03-30T19:04:07.970Z,2.50
2018-03-30T19:06:36.652Z,2.40
2018-03-30T19:09:04.426Z,2.40
2018-03-30T19:11:32.865Z,2.30
2018-03-30T19:14:00.747Z,2.30
2018-03-30T19:16:28.854Z,2.30
2018-03-30T19:18:56.591Z,2.30
2018-03-30T19:21:24.321Z,2.20
2018-03-30T19:23:52.048Z,2.20
2018-03-30T19:26:19.866Z,2.20
2018-03-30T19:28:47.563Z,2.10
2018-03-30T19:31:15.322Z,2.10
2018-03-30T19:33:43.058Z,2.10
2018-03-30T19:36:10.807Z,2.10
2018-03-30T19:38:38.477Z,2.00
2018-03-30T19:41:06.323Z,2.00
2018-03-30T19:43:34.078Z,2.00
2018-03-30T19:46:01.836Z,1.90
2018-03-30T19:48:29.506Z,1.90
2018-03-30T19:50:57.278Z,1.90
2018-03-30T19:53:24.963Z,1.90
2018-03-30T19:55:52.612Z,1.80
2018-03-30T19:58:20.281Z,1.80
2018-03-30T20:00:47.929Z,1.80
2018-03-30T20:03:15.660Z,1.70
2018-03-30T20:05:43.322Z,1.70
2018-03-30T20:08:11.749Z,1.70
2018-03-30T20:10:39.435Z,1.70
2018-03-30T20:13:07.114Z,1.70
2018-03-30T20:15:34.781Z,1.70
2018-03-30T20:18:03.220Z,1.60
2018-03-30T20:20:30.872Z,1.60
2018-03-30T20:22:58.622Z,1.60
2018-03-30T20:25:26.372Z,1.60
2018-03-30T20:27:54.079Z,1.60
2018-03-30T20:30:22.551Z,1.50
2018-03-30T20:32:50.212Z,1.60
2018-03-30T20:35:17.854Z,1.40
2018-03-30T20:37:45.563Z,1.40
2018-03-30T20:40:13.221Z,1.40
2018-03-30T20:42:40.919Z,1.40
2018-03-30T20:45:08.560Z,1.40
2018-03-30T20:47:36.239Z,1.40
2018-03-30T20:50:04.652Z,1.30
2018-03-30T20:52:32.318Z,1.30
2018-03-30T20:54:59.958Z,1.30
2018-03-30T20:57:27.624Z,1.30
2018-03-30T20:59:55.267Z,1.20
2018-03-30T21:02:22.926Z,1.20
2018-03-30T21:04:50.597Z,1.20
2018-03-30T21:07:19.030Z,1.20
2018-03-30T21:09:46.686Z,1.30
2018-03-30T21:12:14.343Z,1.20
2018-03-30T21:14:42.025Z,1.20
2018-03-30T21:17:09.657Z,1.20
2018-03-30T21:19:37.314Z,1.10
2018-03-30T21:22:04.950Z,1.10
2018-03-30T21:24:32.686Z,1.10
2018-03-30T21:27:00.321Z,1.10
2018-03-30T21:29:28.585Z,1.10
2018-03-30T21:31:56.246Z,1.10
2018-03-30T21:34:23.974Z,1.00
2018-03-30T21:36:51.635Z,1.00
2018-03-30T21:39:19.351Z,1.00
2018-03-30T21:41:47.021Z,1.00
2018-03-30T21:44:14.704Z,1.00
2018-03-30T21:46:42.349Z,1.00
2018-03-30T21:49:10.019Z,1.00
2018-03-30T21:51:38.448Z,0.90
2018-03-30T21:54:06.110Z,0.90
2018-03-30T21:56:33.756Z,1.00
2018-03-30T21:59:01.394Z,0.90
2018-03-30T22:01:29.824Z,1.00
2018-03-30T22:03:57.462Z,0.90
2018-03-30T22:06:25.127Z,1.00
2018-03-30T22:08:52.773Z,0.90
2018-03-30T22:11:21.204Z,0.90
2018-03-30T22:13:48.845Z,0.90
2018-03-30T22:16:16.535Z,0.90
2018-03-30T22:18:44.173Z,0.90
2018-03-30T22:21:11.841Z,0.90
2018-03-30T22:23:39.481Z,1.00
2018-03-30T22:26:07.150Z,0.90
2018-03-30T22:28:34.791Z,0.90
2018-03-30T22:31:02.484Z,0.90
2018-03-30T22:33:30.134Z,0.90
2018-03-30T22:35:57.795Z,0.90
2018-03-30T22:38:25.433Z,0.90
2018-03-30T22:40:53.095Z,0.90
2018-03-30T22:43:21.507Z,0.90
2018-03-30T22:45:49.181Z,0.90
2018-03-30T22:48:16.829Z,0.90
2018-03-30T22:50:44.497Z,0.90
2018-03-30T22:53:12.139Z,1.00
2018-03-30T22:55:39.813Z,0.90
2018-03-30T22:58:07.444Z,0.90
2018-03-30T23:00:35.846Z,0.90
2018-03-30T23:03:03.517Z,1.00
2018-03-30T23:05:31.161Z,0.90
2018-03-30T23:07:58.829Z,1.00
2018-03-30T23:10:26.471Z,1.00
2018-03-30T23:12:54.137Z,1.00
2018-03-30T23:15:22.536Z,1.00
2018-03-30T23:17:50.198Z,1.20
2018-03-30T23:20:17.837Z,1.10
2018-03-30T23:22:45.494Z,1.10
2018-03-30T23:25:13.134Z,1.10
2018-03-30T23:27:40.791Z,1.20
2018-03-30T23:30:08.438Z,1.20
2018-03-30T23:32:36.106Z,1.20
2018-03-30T23:35:03.748Z,1.20
2018-03-30T23:37:31.409Z,1.30
2018-03-30T23:39:59.045Z,1.30
2018-03-30T23:42:26.714Z,1.30
2018-03-30T23:44:54.354Z,1.30
2018-03-30T23:47:22.789Z,1.40
2018-03-30T23:49:50.429Z,1.50
2018-03-30T23:52:18.102Z,1.30
2018-03-30T23:54:45.742Z,1.40
2018-03-30T23:57:13.415Z,1.40
2018-03-30T23:59:41.053Z,1.40
